Time;durP1;ratioP1;P1;durP2;ratioP2;P2;SDS_P1;SDS_P2;PMS_P1;PMS_P2;Temp;Humidity;BMP_temperature;BMP_pressure;BME280_temperature;BME280_humidity;BME280_pressure;Samples;Min_cycle;Max_cycle;Signal;HPM_P1;HPM_P2
2023/08/22 00:02:07;;;;;;;3.23;1.97;;;18.30;99.90;;;;;;5023653;28;20473;-51
2023/08/22 00:04:33;;;;;;;4.90;2.27;;;18.40;99.90;;;;;;5017131;28;20460;-51
2023/08/22 00:07:00;;;;;;;3.60;2.07;;;18.30;99.90;;;;;;5011488;28;21027;-50
2023/08/22 00:09:27;;;;;;;7.07;2.20;;;18.30;99.90;;;;;;5017479;28;20487;-52
2023/08/22 00:11:55;;;;;;;4.63;2.00;;;18.30;99.90;;;;;;5009867;28;20486;-50
2023/08/22 00:14:21;;;;;;;6.00;2.23;;;18.30;99.90;;;;;;5009151;28;20545;-53
2023/08/22 00:16:48;;;;;;;4.13;1.90;;;18.30;99.90;;;;;;5015451;28;21100;-51
2023/08/22 00:19:14;;;;;;;6.33;2.00;;;18.40;99.90;;;;;;5008879;28;20468;-51
2023/08/22 00:21:41;;;;;;;7.50;2.20;;;18.30;99.90;;;;;;5009804;28;20487;-53
2023/08/22 00:24:08;;;;;;;4.80;2.43;;;18.40;99.90;;;;;;5021118;28;20450;-51
2023/08/22 00:26:35;;;;;;;3.93;2.20;;;18.40;99.90;;;;;;5012316;28;20511;-50
2023/08/22 00:29:03;;;;;;;14.67;2.10;;;18.40;99.90;;;;;;5019524;28;20495;-52
2023/08/22 00:31:29;;;;;;;4.33;2.50;;;18.40;99.90;;;;;;5021194;28;20507;-51
2023/08/22 00:33:58;;;;;;;8.90;2.10;;;18.40;99.90;;;;;;5009183;28;20467;-50
2023/08/22 00:36:24;;;;;;;3.60;2.30;;;18.40;99.90;;;;;;5011175;28;20503;-51
2023/08/22 00:38:51;;;;;;;9.07;2.40;;;18.40;99.90;;;;;;5020335;28;20487;-52
2023/08/22 00:41:17;;;;;;;5.33;2.10;;;18.40;99.90;;;;;;5026165;28;20501;-51
2023/08/22 00:43:44;;;;;;;4.53;1.80;;;18.30;99.90;;;;;;5031567;28;20724;-49
2023/08/22 00:46:12;;;;;;;5.40;2.30;;;18.20;99.90;;;;;;5020784;28;20493;-50
2023/08/22 00:48:39;;;;;;;7.00;2.87;;;18.20;99.90;;;;;;5014178;28;20551;-51
2023/08/22 00:51:05;;;;;;;4.83;2.77;;;18.20;99.90;;;;;;5016546;28;20471;-52
2023/08/22 00:53:32;;;;;;;3.30;1.97;;;18.20;99.90;;;;;;5018610;28;20543;-51
2023/08/22 00:55:58;;;;;;;4.67;2.40;;;18.10;99.90;;;;;;5016592;28;20483;-51
2023/08/22 00:58:26;;;;;;;5.87;2.07;;;18.20;99.90;;;;;;5010117;28;20487;-50
2023/08/22 01:00:52;;;;;;;5.13;2.10;;;18.20;98.00;;;;;;5008142;28;20483;-51
2023/08/22 01:03:20;;;;;;;4.83;2.30;;;18.20;97.10;;;;;;5005845;28;20455;-50
2023/08/22 01:05:51;;;;;;;4.43;1.90;;;18.20;94.40;;;;;;5015468;28;20514;-52
2023/08/22 01:08:21;;;;;;;3.80;2.30;;;18.10;93.80;;;;;;5016716;28;20517;-51
2023/08/22 01:10:53;;;;;;;4.40;2.47;;;18.10;93.60;;;;;;5006690;28;20958;-50
2023/08/22 01:13:23;;;;;;;4.70;2.60;;;18.10;93.50;;;;;;5002430;28;20515;-50
2023/08/22 01:15:51;;;;;;;6.30;2.47;;;18.10;85.10;;;;;;5006475;28;20626;-51
2023/08/22 01:18:19;;;;;;;3.87;1.93;;;18.10;89.70;;;;;;5009972;28;20896;-51
2023/08/22 01:20:46;;;;;;;6.37;2.20;;;18.10;90.50;;;;;;5006460;28;20866;-53
2023/08/22 01:23:14;;;;;;;4.67;2.17;;;18.10;88.50;;;;;;5008125;28;21015;-51
2023/08/22 01:25:41;;;;;;;4.90;2.17;;;18.10;89.50;;;;;;5012270;28;20952;-51
2023/08/22 01:28:12;;;;;;;4.87;1.87;;;18.20;87.70;;;;;;5013672;28;20491;-51
2023/08/22 01:30:48;;;;;;;8.70;2.23;;;18.10;85.40;;;;;;5010302;28;22529;-50
2023/08/22 01:33:22;;;;;;;4.50;2.30;;;18.10;86.60;;;;;;5007700;28;20938;-52
2023/08/22 01:35:51;;;;;;;6.07;1.90;;;18.10;86.20;;;;;;5013051;28;20464;-51
2023/08/22 01:38:20;;;;;;;5.70;1.90;;;18.10;85.30;;;;;;5012193;28;20491;-52
2023/08/22 01:40:48;;;;;;;10.50;2.40;;;18.10;84.60;;;;;;5012857;28;20502;-51
2023/08/22 01:43:15;;;;;;;7.43;2.40;;;18.10;86.60;;;;;;5009702;28;20494;-52
2023/08/22 01:45:41;;;;;;;6.17;2.13;;;18.10;85.30;;;;;;5012033;28;20567;-51
2023/08/22 01:48:08;;;;;;;3.40;1.57;;;18.20;88.40;;;;;;5012411;28;20546;-50
2023/08/22 01:50:34;;;;;;;6.17;2.27;;;18.20;87.50;;;;;;5018022;28;20486;-52
2023/08/22 01:53:01;;;;;;;15.97;1.93;;;18.20;90.20;;;;;;5012487;28;20495;-51
2023/08/22 01:55:29;;;;;;;4.57;2.27;;;18.30;96.70;;;;;;5014218;28;20945;-51
2023/08/22 01:57:55;;;;;;;6.50;1.93;;;18.30;93.10;;;;;;5020214;28;20498;-51
2023/08/22 02:00:22;;;;;;;6.23;2.30;;;18.30;99.90;;;;;;5014843;28;20482;-50
2023/08/22 02:02:49;;;;;;;4.07;2.43;;;18.30;99.90;;;;;;5015854;28;20455;-51
2023/08/22 02:05:15;;;;;;;6.23;2.23;;;18.40;99.90;;;;;;5014872;28;20586;-51
2023/08/22 02:07:42;;;;;;;9.50;2.23;;;18.40;99.90;;;;;;5027843;28;20514;-52
2023/08/22 02:10:08;;;;;;;10.07;2.00;;;18.50;99.90;;;;;;5045527;28;20456;-52
2023/08/22 02:12:36;;;;;;;8.00;1.90;;;18.50;99.90;;;;;;5036259;28;20506;-52
2023/08/22 02:15:03;;;;;;;7.00;2.10;;;18.40;99.90;;;;;;5029273;28;20521;-52
2023/08/22 02:17:29;;;;;;;4.43;1.70;;;18.50;99.90;;;;;;5030652;28;20463;-50
2023/08/22 02:19:56;;;;;;;5.10;2.30;;;18.50;99.90;;;;;;5036711;28;20462;-51
2023/08/22 02:22:23;;;;;;;7.03;2.20;;;18.50;99.90;;;;;;5024635;28;20490;-51
2023/08/22 02:24:49;;;;;;;5.33;1.70;;;18.50;99.90;;;;;;5009019;28;20459;-50
2023/08/22 02:27:16;;;;;;;7.90;2.10;;;18.40;99.90;;;;;;5020482;28;20984;-52
2023/08/22 02:29:44;;;;;;;7.73;2.23;;;18.40;99.90;;;;;;5005553;28;20538;-51
2023/08/22 02:32:10;;;;;;;6.20;2.17;;;18.40;99.90;;;;;;5022714;28;20496;-52
2023/08/22 02:34:37;;;;;;;7.23;1.90;;;18.40;99.90;;;;;;5018213;28;20556;-53
2023/08/22 02:37:03;;;;;;;4.80;2.20;;;18.30;99.90;;;;;;5012970;28;20541;-50
2023/08/22 02:39:30;;;;;;;4.20;1.93;;;18.30;99.90;;;;;;5015842;28;20456;-51
2023/08/22 02:41:57;;;;;;;7.00;2.10;;;18.40;99.90;;;;;;5027277;28;20554;-50
2023/08/22 02:44:23;;;;;;;6.33;2.20;;;18.30;99.90;;;;;;5019951;28;20565;-51
2023/08/22 02:46:51;;;;;;;2.77;1.83;;;18.40;99.90;;;;;;5013366;28;20993;-52
2023/08/22 02:49:18;;;;;;;7.33;2.10;;;18.40;99.90;;;;;;5013842;28;20459;-51
2023/08/22 02:51:44;;;;;;;7.33;2.50;;;18.40;99.90;;;;;;5013686;28;20475;-52
2023/08/22 02:54:11;;;;;;;9.53;2.40;;;18.40;99.90;;;;;;5008101;28;21080;-50
2023/08/22 02:56:37;;;;;;;7.63;2.40;;;18.40;99.90;;;;;;5012451;28;20507;-51
2023/08/22 02:59:04;;;;;;;5.33;2.07;;;18.40;99.90;;;;;;5008333;28;20491;-51
2023/08/22 03:01:30;;;;;;;4.63;2.23;;;18.40;99.90;;;;;;5012151;28;20459;-51
2023/08/22 03:03:58;;;;;;;4.40;1.60;;;18.40;99.90;;;;;;5005004;28;20534;-51
2023/08/22 03:06:25;;;;;;;7.17;2.90;;;18.40;99.90;;;;;;5008678;28;20925;-52
2023/08/22 03:08:51;;;;;;;8.33;1.90;;;18.40;99.90;;;;;;5011294;28;20487;-51
2023/08/22 03:11:18;;;;;;;7.20;1.77;;;18.40;99.90;;;;;;5009580;28;20491;-52
2023/08/22 03:13:44;;;;;;;6.37;2.77;;;18.40;99.90;;;;;;5012412;28;20502;-53
2023/08/22 03:16:11;;;;;;;11.87;2.07;;;18.40;99.90;;;;;;5019392;28;20566;-52
2023/08/22 03:18:37;;;;;;;5.00;2.37;;;18.40;99.60;;;;;;5011236;28;20839;-51
2023/08/22 03:21:05;;;;;;;5.60;2.20;;;18.30;99.90;;;;;;5012411;28;20467;-51
2023/08/22 03:23:32;;;;;;;9.23;2.20;;;18.30;99.90;;;;;;5005901;28;20518;-50
2023/08/22 03:25:59;;;;;;;3.37;1.70;;;18.30;99.90;;;;;;5011900;28;20507;-51
2023/08/22 03:28:26;;;;;;;5.57;2.17;;;18.30;99.90;;;;;;5005244;28;20885;-52
2023/08/22 03:30:57;;;;;;;4.53;1.97;;;18.30;99.90;;;;;;5011396;28;20922;-52
2023/08/22 03:33:24;;;;;;;4.73;1.80;;;18.30;97.10;;;;;;5013554;28;20478;-50
2023/08/22 03:35:51;;;;;;;3.80;1.73;;;18.30;99.90;;;;;;5031777;28;20466;-51
2023/08/22 03:38:19;;;;;;;13.43;2.27;;;18.30;99.90;;;;;;5032711;28;20459;-51
2023/08/22 03:40:47;;;;;;;3.33;1.90;;;18.20;99.90;;;;;;5023500;28;20460;-49
2023/08/22 03:43:13;;;;;;;4.40;2.33;;;18.30;99.90;;;;;;5011745;28;20538;-49
2023/08/22 03:45:40;;;;;;;4.33;1.80;;;18.20;99.00;;;;;;5010848;28;20530;-50
2023/08/22 03:48:07;;;;;;;4.80;1.93;;;18.20;99.90;;;;;;5021162;28;20472;-51
2023/08/22 03:50:34;;;;;;;6.43;2.40;;;18.30;99.90;;;;;;5009267;28;20471;-49
2023/08/22 03:53:01;;;;;;;6.60;2.50;;;18.30;99.20;;;;;;5010770;28;20539;-51
2023/08/22 03:55:29;;;;;;;3.50;2.60;;;18.20;99.30;;;;;;5011373;28;20484;-50
2023/08/22 03:57:58;;;;;;;6.83;2.10;;;18.20;96.80;;;;;;5010530;28;20496;-52
2023/08/22 04:00:25;;;;;;;3.23;2.17;;;18.20;95.00;;;;;;5010075;28;20456;-50
2023/08/22 04:02:54;;;;;;;2.80;2.03;;;18.20;96.30;;;;;;5009566;28;20466;-50
2023/08/22 04:05:21;;;;;;;8.23;2.10;;;18.20;95.60;;;;;;5014718;28;20466;-50
2023/08/22 04:07:47;;;;;;;3.73;2.00;;;18.20;93.50;;;;;;5010990;28;20533;-50
2023/08/22 04:10:14;;;;;;;5.20;2.03;;;18.20;94.80;;;;;;5008999;28;20479;-50
2023/08/22 04:12:41;;;;;;;10.00;1.67;;;18.30;96.10;;;;;;5007920;28;20494;-51
2023/08/22 04:15:09;;;;;;;4.87;2.37;;;18.30;92.30;;;;;;5006022;28;20602;-51
2023/08/22 04:17:38;;;;;;;8.17;2.03;;;18.20;94.30;;;;;;5010742;28;21028;-50
2023/08/22 04:20:08;;;;;;;6.20;3.10;;;18.20;93.20;;;;;;5009252;28;20464;-49
2023/08/22 04:22:34;;;;;;;4.57;2.20;;;18.20;95.80;;;;;;5007743;28;20483;-49
2023/08/22 04:25:01;;;;;;;6.77;1.97;;;18.20;95.00;;;;;;5010303;28;20455;-50
2023/08/22 04:27:29;;;;;;;8.43;2.50;;;18.20;94.40;;;;;;5008330;28;20507;-50
2023/08/22 04:29:57;;;;;;;5.03;1.83;;;18.30;96.70;;;;;;5010852;28;20459;-49
2023/08/22 04:32:23;;;;;;;6.97;3.10;;;18.20;92.30;;;;;;5009357;28;20533;-51
2023/08/22 04:34:50;;;;;;;5.70;1.70;;;18.30;97.50;;;;;;5008799;28;20522;-50
2023/08/22 04:37:16;;;;;;;4.73;2.10;;;18.30;95.80;;;;;;5007543;28;20518;-50
2023/08/22 04:39:43;;;;;;;8.53;2.37;;;18.30;99.90;;;;;;5008129;28;20539;-50
2023/08/22 04:42:09;;;;;;;9.23;2.40;;;18.30;99.90;;;;;;5008538;28;20920;-49
2023/08/22 04:44:36;;;;;;;4.10;1.80;;;18.30;98.60;;;;;;5008729;28;20542;-50
2023/08/22 04:47:04;;;;;;;3.87;2.07;;;18.30;99.90;;;;;;5008726;28;20515;-48
2023/08/22 04:49:31;;;;;;;9.97;2.37;;;18.40;93.90;;;;;;5010606;28;20483;-50
2023/08/22 04:51:57;;;;;;;9.77;2.60;;;18.50;99.90;;;;;;5009141;28;20487;-51
2023/08/22 04:54:24;;;;;;;4.93;2.03;;;18.50;99.90;;;;;;5011426;28;20896;-49
2023/08/22 04:56:50;;;;;;;5.03;2.00;;;18.50;99.90;;;;;;5019010;28;20567;-49
2023/08/22 04:59:17;;;;;;;14.00;2.30;;;18.50;99.90;;;;;;5009593;28;20499;-49
2023/08/22 05:01:43;;;;;;;3.37;2.20;;;18.50;99.90;;;;;;5014557;28;20517;-51
2023/08/22 05:04:11;;;;;;;10.43;2.67;;;18.50;99.90;;;;;;5015250;28;21007;-54
2023/08/22 05:06:38;;;;;;;13.50;2.80;;;18.60;99.90;;;;;;5018305;28;20523;-51
2023/08/22 05:09:04;;;;;;;7.30;2.50;;;18.60;99.90;;;;;;5025234;28;20545;-52
2023/08/22 05:11:31;;;;;;;6.10;2.07;;;18.60;99.90;;;;;;5012762;28;20495;-53
2023/08/22 05:13:57;;;;;;;3.80;1.83;;;18.60;99.90;;;;;;5011091;28;20585;-51
2023/08/22 05:16:24;;;;;;;5.57;2.30;;;18.60;99.90;;;;;;5028527;28;20540;-52
2023/08/22 05:18:50;;;;;;;4.30;1.80;;;18.70;99.90;;;;;;5019552;28;20973;-51
2023/08/22 05:21:18;;;;;;;5.20;2.10;;;18.70;99.90;;;;;;5023761;28;20495;-50
2023/08/22 05:23:45;;;;;;;5.40;2.07;;;18.70;99.90;;;;;;5017865;28;20491;-50
2023/08/22 05:26:12;;;;;;;12.63;2.63;;;18.80;99.90;;;;;;5019218;28;20510;-51
2023/08/22 05:28:38;;;;;;;5.60;2.00;;;18.80;99.90;;;;;;5030644;28;20449;-50
2023/08/22 05:31:05;;;;;;;4.53;2.50;;;18.80;99.90;;;;;;5014387;28;20467;-51
2023/08/22 05:33:31;;;;;;;5.63;1.97;;;18.80;99.90;;;;;;5021730;28;20578;-54
2023/08/22 05:35:58;;;;;;;11.13;2.17;;;18.90;99.90;;;;;;5028169;28;20908;-53
2023/08/22 05:38:26;;;;;;;5.40;1.60;;;18.90;99.90;;;;;;5034811;28;20474;-53
2023/08/22 05:40:52;;;;;;;9.33;2.63;;;18.90;99.90;;;;;;5025458;28;20503;-53
2023/08/22 05:43:19;;;;;;;6.00;2.33;;;19.00;99.90;;;;;;5017559;28;20491;-54
2023/08/22 05:45:46;;;;;;;17.63;3.00;;;19.00;99.90;;;;;;5009861;28;20558;-53
2023/08/22 05:48:12;;;;;;;12.40;2.60;;;19.00;99.90;;;;;;4999693;28;20458;-53
2023/08/22 05:50:39;;;;;;;7.90;2.27;;;19.10;99.90;;;;;;5008439;28;20506;-52
2023/08/22 05:53:05;;;;;;;5.70;1.93;;;19.20;99.90;;;;;;5004020;28;20561;-53
2023/08/22 05:55:33;;;;;;;16.00;1.83;;;19.20;99.90;;;;;;5009526;28;20547;-53
2023/08/22 05:58:00;;;;;;;11.67;2.30;;;19.30;99.90;;;;;;5011291;28;20511;-54
2023/08/22 06:00:26;;;;;;;6.70;2.70;;;19.30;99.90;;;;;;5012029;28;21023;-57
2023/08/22 06:02:53;;;;;;;8.70;2.20;;;19.30;99.90;;;;;;5007489;28;20558;-54
2023/08/22 06:05:19;;;;;;;4.40;2.27;;;19.30;99.90;;;;;;5006704;28;20558;-54
2023/08/22 06:07:46;;;;;;;5.30;1.93;;;19.20;99.90;;;;;;5014543;28;20503;-54
2023/08/22 06:10:12;;;;;;;16.87;2.27;;;19.20;99.90;;;;;;5013462;28;20463;-54
2023/08/22 06:12:40;;;;;;;5.23;2.00;;;19.30;99.90;;;;;;5016862;28;20483;-54
2023/08/22 06:15:08;;;;;;;3.77;1.70;;;19.40;99.90;;;;;;5007285;28;20570;-55
2023/08/22 06:17:35;;;;;;;6.10;2.37;;;19.40;99.90;;;;;;5009264;28;20507;-53
2023/08/22 06:20:03;;;;;;;8.73;2.43;;;19.50;99.90;;;;;;5004667;28;20467;-54
2023/08/22 06:22:29;;;;;;;8.77;2.37;;;19.60;99.90;;;;;;5009386;28;20460;-53
2023/08/22 06:24:56;;;;;;;6.63;2.00;;;19.60;99.90;;;;;;5008200;28;20534;-54
2023/08/22 06:27:22;;;;;;;4.97;1.90;;;19.50;99.90;;;;;;5009741;28;20558;-52
2023/08/22 06:29:50;;;;;;;7.20;1.83;;;19.60;99.90;;;;;;5008386;28;20465;-53
2023/08/22 06:32:21;;;;;;;4.67;1.80;;;19.50;99.90;;;;;;5008208;28;20492;-53
2023/08/22 06:34:47;;;;;;;4.77;1.80;;;19.60;99.90;;;;;;5001853;28;20865;-52
2023/08/22 06:37:14;;;;;;;7.80;2.60;;;19.50;99.90;;;;;;5014660;28;20575;-54
2023/08/22 06:39:40;;;;;;;8.53;2.57;;;19.60;99.90;;;;;;5007428;28;20471;-54
2023/08/22 06:42:07;;;;;;;5.03;2.07;;;19.50;99.90;;;;;;5003328;28;20501;-53
2023/08/22 06:44:34;;;;;;;3.37;1.73;;;19.60;99.90;;;;;;5002448;28;20459;-54
2023/08/22 06:47:03;;;;;;;6.07;2.07;;;19.60;99.90;;;;;;5010709;28;20513;-54
2023/08/22 06:49:30;;;;;;;10.57;1.73;;;19.70;99.90;;;;;;5017741;28;20494;-54
2023/08/22 06:51:56;;;;;;;8.63;2.10;;;19.70;99.90;;;;;;5006959;28;20499;-53
2023/08/22 06:54:23;;;;;;;4.67;1.93;;;19.80;99.90;;;;;;5001151;28;20534;-54
2023/08/22 06:56:50;;;;;;;6.60;1.57;;;19.80;99.90;;;;;;5003855;28;20491;-53
2023/08/22 06:59:17;;;;;;;5.73;2.40;;;19.80;99.90;;;;;;5002426;28;20551;-54
2023/08/22 07:01:43;;;;;;;3.57;1.77;;;19.80;99.90;;;;;;5007166;28;20966;-53
2023/08/22 07:04:11;;;;;;;6.00;1.67;;;19.90;99.90;;;;;;5003740;28;20567;-54
2023/08/22 07:06:38;;;;;;;5.10;1.87;;;19.90;99.90;;;;;;4998054;28;20483;-53
2023/08/22 07:09:04;;;;;;;6.50;2.20;;;19.90;99.90;;;;;;5005967;28;20498;-53
2023/08/22 07:11:31;;;;;;;33.67;2.40;;;20.00;99.90;;;;;;5011946;28;20463;-54
2023/08/22 07:13:57;;;;;;;6.20;2.00;;;20.10;99.90;;;;;;5005687;28;20575;-54
2023/08/22 07:16:24;;;;;;;7.93;1.60;;;20.10;99.90;;;;;;5008263;28;20563;-54
2023/08/22 07:18:50;;;;;;;6.53;2.37;;;20.20;99.90;;;;;;5009620;28;20899;-54
2023/08/22 07:21:18;;;;;;;2.83;1.40;;;20.20;99.90;;;;;;5015113;28;20487;-53
2023/08/22 07:23:45;;;;;;;4.70;1.60;;;20.40;99.90;;;;;;5007886;28;20464;-53
2023/08/22 07:26:11;;;;;;;3.37;1.53;;;20.60;99.90;;;;;;5009943;28;20507;-53
2023/08/22 07:28:38;;;;;;;6.10;1.63;;;20.70;99.90;;;;;;5007862;28;20562;-52
2023/08/22 07:31:04;;;;;;;4.87;2.30;;;20.70;99.90;;;;;;5008553;28;20464;-52
2023/08/22 07:33:31;;;;;;;6.40;2.10;;;20.70;99.90;;;;;;5005429;28;20455;-51
2023/08/22 07:35:58;;;;;;;6.83;2.23;;;20.70;99.90;;;;;;5009975;28;20499;-51
2023/08/22 07:38:26;;;;;;;4.70;1.70;;;20.60;99.90;;;;;;5009697;28;21087;-51
2023/08/22 07:40:53;;;;;;;3.87;1.97;;;20.60;99.90;;;;;;5007321;28;20499;-51
2023/08/22 07:43:20;;;;;;;8.40;2.27;;;20.60;99.90;;;;;;5020496;28;20468;-50
2023/08/22 07:45:46;;;;;;;11.13;2.33;;;20.60;99.90;;;;;;5013109;28;20491;-52
2023/08/22 07:48:13;;;;;;;10.37;1.60;;;20.50;99.90;;;;;;5012700;28;20541;-52
2023/08/22 07:50:39;;;;;;;3.60;1.10;;;20.60;99.90;;;;;;5011284;28;20547;-51
2023/08/22 07:53:06;;;;;;;5.23;2.10;;;20.50;99.90;;;;;;5018008;28;20467;-52
2023/08/22 07:55:34;;;;;;;4.87;1.67;;;20.50;99.90;;;;;;5016768;28;21035;-51
2023/08/22 07:58:01;;;;;;;4.97;1.73;;;20.50;99.90;;;;;;5005340;28;20550;-51
2023/08/22 08:00:27;;;;;;;17.90;2.23;;;20.50;99.90;;;;;;5013797;28;20521;-51
2023/08/22 08:02:54;;;;;;;6.83;2.33;;;20.60;99.90;;;;;;5009740;28;20518;-52
2023/08/22 08:05:21;;;;;;;9.57;2.13;;;20.70;99.90;;;;;;5011596;28;20459;-51
2023/08/22 08:07:47;;;;;;;5.20;1.70;;;20.80;99.90;;;;;;5010170;28;21065;-52
2023/08/22 08:10:15;;;;;;;6.90;1.50;;;20.80;99.90;;;;;;5005870;28;20563;-52
2023/08/22 08:12:43;;;;;;;6.37;1.30;;;20.90;99.90;;;;;;5007329;28;20463;-52
2023/08/22 08:15:09;;;;;;;3.37;1.73;;;21.00;99.90;;;;;;5007534;28;20569;-52
2023/08/22 08:17:36;;;;;;;3.77;1.63;;;21.10;99.90;;;;;;5006934;28;20518;-51
2023/08/22 08:20:04;;;;;;;3.83;1.50;;;21.20;99.90;;;;;;5007717;28;20483;-52
2023/08/22 08:22:31;;;;;;;5.23;1.70;;;21.30;99.90;;;;;;5006579;28;20533;-52
2023/08/22 08:24:57;;;;;;;1.60;1.47;;;21.40;99.90;;;;;;5019048;28;20459;-52
2023/08/22 08:27:24;;;;;;;4.23;1.50;;;21.30;99.90;;;;;;5012014;28;20525;-51
2023/08/22 08:29:52;;;;;;;3.73;1.70;;;21.30;99.90;;;;;;5016582;28;20522;-51
2023/08/22 08:32:18;;;;;;;4.00;1.33;;;21.30;99.90;;;;;;5016686;28;20486;-51
2023/08/22 08:34:45;;;;;;;4.77;1.57;;;21.30;99.90;;;;;;5019237;28;20480;-52
2023/08/22 08:37:12;;;;;;;5.77;1.40;;;21.30;99.90;;;;;;5007463;28;21258;-52
2023/08/22 08:39:38;;;;;;;5.03;1.63;;;21.30;99.90;;;;;;5008504;28;20550;-53
2023/08/22 08:42:13;;;;;;;7.07;2.10;;;21.30;99.90;;;;;;5016090;28;20904;-51
2023/08/22 08:44:40;;;;;;;2.60;2.00;;;21.30;99.90;;;;;;5011058;28;20458;-51
2023/08/22 08:47:09;;;;;;;5.23;1.70;;;21.30;76.60;;;;;;5012920;28;20518;-53
2023/08/22 08:49:37;;;;;;;8.97;1.83;;;21.40;25.10;;;;;;5012072;28;20471;-52
2023/08/22 08:52:06;;;;;;;6.00;2.20;;;21.50;24.90;;;;;;5011972;28;20977;-51
2023/08/22 08:54:33;;;;;;;4.30;2.00;;;21.60;30.90;;;;;;5006529;28;20511;-52
2023/08/22 08:57:00;;;;;;;4.30;1.67;;;21.70;35.50;;;;;;5010928;28;20483;-51
2023/08/22 08:59:27;;;;;;;1.93;1.30;;;21.80;40.70;;;;;;5012996;28;20521;-50
2023/08/22 09:01:54;;;;;;;3.70;1.80;;;21.90;40.20;;;;;;5019817;28;20557;-50
2023/08/22 09:04:23;;;;;;;11.03;1.57;;;22.00;44.40;;;;;;5004151;28;20538;-51
2023/08/22 09:06:49;;;;;;;15.03;2.13;;;22.10;43.80;;;;;;5007060;28;20491;-51
2023/08/22 09:09:17;;;;;;;1.57;1.47;;;22.00;49.20;;;;;;5012867;28;21115;-52
2023/08/22 09:11:45;;;;;;;3.57;1.17;;;22.00;42.80;;;;;;5014605;28;20524;-50
2023/08/22 09:14:12;;;;;;;7.27;2.20;;;22.00;51.30;;;;;;5006931;28;20506;-50
2023/08/22 09:16:39;;;;;;;8.17;1.13;;;22.10;51.50;;;;;;5010910;28;20479;-50
2023/08/22 09:19:07;;;;;;;4.13;1.30;;;22.10;53.00;;;;;;5008548;28;20456;-50
2023/08/22 09:21:35;;;;;;;3.43;1.53;;;22.20;51.60;;;;;;5009228;28;20677;-54
2023/08/22 09:24:09;;;;;;;2.87;1.53;;;22.10;56.10;;;;;;5007778;28;20459;-54
2023/08/22 09:26:36;;;;;;;12.57;2.23;;;22.20;60.00;;;;;;5013924;28;20530;-53
2023/08/22 09:29:06;;;;;;;4.63;1.20;;;22.30;61.40;;;;;;5013502;28;20525;-54
2023/08/22 09:31:35;;;;;;;7.10;1.50;;;22.30;67.00;;;;;;5018564;28;21024;-54
2023/08/22 09:34:08;;;;;;;4.97;1.43;;;22.30;64.90;;;;;;5025116;28;20490;-53
2023/08/22 09:36:45;;;;;;;9.07;1.80;;;22.30;74.60;;;;;;5031461;22;20916;-52
2023/08/22 09:39:13;;;;;;;10.70;2.40;;;22.40;67.20;;;;;;5052979;28;20552;-53
2023/08/22 09:41:41;;;;;;;3.37;1.20;;;22.50;59.70;;;;;;5059569;28;20489;-52
2023/08/22 09:44:10;;;;;;;3.90;1.50;;;22.50;66.30;;;;;;5047329;28;20466;-52
2023/08/22 09:46:39;;;;;;;3.50;1.40;;;22.40;75.40;;;;;;5048277;28;21019;-52
2023/08/22 09:49:08;;;;;;;4.70;1.53;;;22.40;69.50;;;;;;5052135;28;20465;-52
2023/08/22 09:51:36;;;;;;;5.00;1.83;;;22.50;61.00;;;;;;5053001;28;20496;-52
2023/08/22 09:54:06;;;;;;;17.50;10.63;;;22.60;54.00;;;;;;5050754;28;20545;-53
2023/08/22 09:56:33;;;;;;;4.03;2.63;;;22.90;66.40;;;;;;5051842;28;20512;-52
2023/08/22 09:59:01;;;;;;;18.37;9.63;;;23.30;75.70;;;;;;5049167;28;20479;-52
2023/08/22 10:01:30;;;;;;;9.53;3.67;;;23.70;81.10;;;;;;5047247;28;20493;-53
2023/08/22 10:03:57;;;;;;;33.37;14.93;;;24.00;97.30;;;;;;5048882;28;21149;-54
2023/08/22 10:06:29;;;;;;;45.07;21.27;;;24.10;98.90;;;;;;5046267;28;20460;-51
2023/08/22 10:08:59;;;;;;;68.77;29.30;;;24.30;99.90;;;;;;5048401;28;20813;-52
2023/08/22 10:11:28;;;;;;;45.50;19.10;;;24.40;99.90;;;;;;5042543;28;20607;-51
2023/08/22 10:13:55;;;;;;;9.73;6.33;;;24.30;99.90;;;;;;5046524;28;20569;-52
2023/08/22 10:16:22;;;;;;;22.43;12.03;;;24.30;99.90;;;;;;5048982;28;20521;-53
2023/08/22 10:18:59;;;;;;;21.60;8.67;;;24.30;99.90;;;;;;5044793;28;20513;-53
2023/08/22 10:21:26;;;;;;;19.63;3.27;;;24.30;99.90;;;;;;5046106;28;20548;-52
2023/08/22 10:23:59;;;;;;;8.43;4.87;;;24.20;99.90;;;;;;5047778;28;20473;-53
2023/08/22 10:26:28;;;;;;;5.90;2.93;;;24.10;99.90;;;;;;5048560;28;21263;-52
2023/08/22 10:29:12;;;;;;;4.47;2.50;;;23.80;99.90;;;;;;5048687;28;20464;-52
2023/08/22 10:32:12;;;;;;;29.87;13.97;;;23.80;99.90;;;;;;5046739;28;20472;-52
2023/08/22 10:35:01;;;;;;;8.20;2.60;;;23.70;97.50;;;;;;5044276;28;20505;-53
2023/08/22 10:37:28;;;;;;;4.53;2.23;;;23.60;99.90;;;;;;5049134;28;20559;-50
2023/08/22 10:39:59;;;;;;;6.80;2.53;;;23.60;99.90;;;;;;5045981;28;20461;-52
2023/08/22 10:42:26;;;;;;;16.70;3.20;;;23.50;99.50;;;;;;5041179;28;20550;-52
2023/08/22 10:44:56;;;;;;;5.43;2.17;;;23.60;97.90;;;;;;5046784;28;20489;-52
2023/08/22 10:47:25;;;;;;;2.83;2.00;;;23.70;98.30;;;;;;5046308;28;20485;-51
2023/08/22 10:49:53;;;;;;;6.63;2.50;;;23.80;92.70;;;;;;5052441;28;20545;-52
2023/08/22 10:52:25;;;;;;;14.70;2.33;;;23.80;94.30;;;;;;5045942;28;20481;-53
2023/08/22 10:55:08;;;;;;;16.90;6.37;;;23.90;94.00;;;;;;5043371;28;20490;-54
2023/08/22 10:57:36;;;;;;;6.50;1.57;;;24.10;99.90;;;;;;5046622;28;20478;-54
2023/08/22 11:00:11;;;;;;;3.17;1.47;;;24.30;99.90;;;;;;5044166;28;20524;-53
2023/08/22 11:02:38;;;;;;;3.23;1.80;;;24.40;99.90;;;;;;5047133;28;20481;-55
2023/08/22 11:05:08;;;;;;;5.13;1.77;;;24.60;99.90;;;;;;5045368;28;20596;-52
2023/08/22 11:07:35;;;;;;;4.83;1.90;;;24.70;99.90;;;;;;5048175;28;20524;-55
2023/08/22 11:10:04;;;;;;;3.70;1.93;;;24.50;99.90;;;;;;5043514;28;20504;-54
2023/08/22 11:12:31;;;;;;;2.93;1.60;;;24.40;99.90;;;;;;5044349;28;20465;-54
2023/08/22 11:14:58;;;;;;;2.37;1.17;;;24.40;99.90;;;;;;5043756;28;20970;-53
2023/08/22 11:17:25;;;;;;;15.10;2.30;;;24.50;99.90;;;;;;5044230;28;20481;-51
2023/08/22 11:19:54;;;;;;;13.67;1.50;;;25.00;99.90;;;;;;5045853;28;20490;-52
2023/08/22 11:22:21;;;;;;;9.53;1.87;;;25.50;99.90;;;;;;5046231;28;20462;-54
2023/08/22 11:24:51;;;;;;;2.57;1.50;;;26.10;99.90;;;;;;5045797;28;20526;-52
2023/08/22 11:27:19;;;;;;;3.63;1.43;;;26.20;99.90;;;;;;5046748;28;20585;-52
2023/08/22 11:29:49;;;;;;;2.83;1.40;;;26.40;99.90;;;;;;5047675;28;20457;-51
2023/08/22 11:32:20;;;;;;;9.00;1.60;;;26.20;99.90;;;;;;5043112;28;20464;-54
2023/08/22 11:34:47;;;;;;;5.30;1.70;;;26.80;99.90;;;;;;5040277;28;20469;-53
2023/08/22 11:37:14;;;;;;;3.50;1.90;;;26.60;99.90;;;;;;5049557;28;20493;-53
2023/08/22 11:39:40;;;;;;;4.30;1.43;;;26.20;99.90;;;;;;5048673;28;20457;-52
2023/08/22 11:42:07;;;;;;;9.90;1.60;;;25.80;99.90;;;;;;5050624;28;20539;-53
2023/08/22 11:44:52;;;;;;;2.63;1.63;;;25.40;99.90;;;;;;5044551;28;20990;-52
2023/08/22 11:47:19;;;;;;;3.30;1.67;;;25.40;99.90;;;;;;5046451;28;20478;-52
2023/08/22 11:49:49;;;;;;;7.30;1.83;;;25.40;99.90;;;;;;5046604;28;20477;-52
2023/08/22 11:52:16;;;;;;;2.10;1.50;;;25.30;99.90;;;;;;5047314;28;20462;-53
2023/08/22 11:54:44;;;;;;;4.13;1.50;;;25.40;99.90;;;;;;5047551;28;20990;-53
2023/08/22 11:57:11;;;;;;;2.97;1.97;;;25.60;99.90;;;;;;5046491;28;20986;-53
2023/08/22 11:59:40;;;;;;;2.23;2.00;;;25.70;99.90;;;;;;5044466;28;20461;-53
2023/08/22 12:02:07;;;;;;;3.80;2.67;;;25.60;99.90;;;;;;5047816;28;20467;-52
2023/08/22 12:04:44;;;;;;;6.47;2.00;;;25.70;99.90;;;;;;5042063;28;20454;-52
2023/08/22 12:07:10;;;;;;;3.30;1.63;;;25.80;99.90;;;;;;5048764;28;20913;-54
2023/08/22 12:09:37;;;;;;;12.10;2.80;;;25.70;99.90;;;;;;5041786;28;20493;-52
2023/08/22 12:12:11;;;;;;;6.70;2.60;;;25.70;99.90;;;;;;5041193;28;20464;-53
2023/08/22 12:14:39;;;;;;;6.40;1.70;;;25.60;99.90;;;;;;5044669;28;20453;-53
2023/08/22 12:17:06;;;;;;;5.60;1.83;;;25.50;99.90;;;;;;5043258;28;20521;-53
2023/08/22 12:19:33;;;;;;;3.33;1.30;;;25.50;99.90;;;;;;5047088;28;20493;-53
2023/08/22 12:22:00;;;;;;;3.23;1.90;;;25.40;99.90;;;;;;5043435;28;20548;-53
2023/08/22 12:24:27;;;;;;;3.93;1.70;;;25.30;99.90;;;;;;5045080;28;20511;-53
2023/08/22 12:26:53;;;;;;;6.57;1.80;;;25.00;99.90;;;;;;5042200;28;20470;-53
2023/08/22 12:29:20;;;;;;;4.10;1.90;;;25.00;99.90;;;;;;5045646;28;20497;-54
2023/08/22 12:31:47;;;;;;;3.20;2.13;;;25.00;99.90;;;;;;5049305;28;20516;-54
2023/08/22 12:34:14;;;;;;;3.63;1.67;;;25.10;99.90;;;;;;5047341;28;20541;-52
2023/08/22 12:36:40;;;;;;;3.27;2.10;;;25.10;99.90;;;;;;5044321;28;20547;-54
2023/08/22 12:39:10;;;;;;;2.50;1.50;;;25.20;99.90;;;;;;5044908;28;21009;-53
2023/08/22 12:41:37;;;;;;;7.13;1.83;;;25.20;99.90;;;;;;5042273;28;20868;-53
2023/08/22 12:44:04;;;;;;;5.23;2.17;;;25.30;99.90;;;;;;5039205;28;20545;-53
2023/08/22 12:46:30;;;;;;;5.27;1.67;;;25.10;99.90;;;;;;5046372;28;20951;-52
2023/08/22 12:48:58;;;;;;;7.23;1.80;;;25.10;99.90;;;;;;5048290;28;20509;-53